Salida, Colorado
Current Conditions -  °F | °C
As of 12:55 AM on Sunday 26 Oct 2014 (Local Time) from KANK Reporting Station
Clear Clear  
Wind Chill: 54°   Ceiling: Unl
Heat Index: 54°   Visibility: 10mi
Dew Point: 27°   Wind: 10mph
Humidity: 35%   Direction: 260°W
Pressure: 30.26"   Gusts: NA
Location:  38.53°N, 106°W
Report Text: KANK 260655Z AUTO 26009KT 10SM CLR 12/M03 A3026 RMK AO1 T01221030
Loading
Personal Weather Stations






























Interactive Weather Map
Tropical Storm Tracking
New forecast layout! Learn more

10-Day Weather Forecast

Advertisements
Track Severe Weather on mobile